DWD Radarbild

   
[Quelle: ADDS]
METAR
EDLP 210350Z 17005KT 9999 FEW025 04/02 Q1034 =
EDLP 202300Z 2100/2124 20005KT 9999 FEW035 BECMG 2108/2111 28005KT BECMG 2118/2121 16005KT
TAF
EDLP 202300Z 2100/2124 20005KT 9999 FEW035 BECMG 2108/2111 28005KT BECMG 2118/2121 16005KT =
   
   

Meine WettercamWettercam aus Bielefeld Senne - Blickrichtung Süd-Ostjede Min. ein neues Bild

   
Moon phase
Phase:
Vollmond

Mondphase:
100%

Alter:
15 Tage

Entfernung:
228,022 Km

Zeit:
05:23:10

Datum:
21-03-2019

   
<<  Mär 2019  >>
 Mo  Di  Mi  Do  Fr  Sa  So 
      1  2  3
  4  5  6  7  8  910
11121314151617
18192021222324
25262728293031